createdAt,value
2023-12-09T00:00:48.769Z,4.50
2023-12-09T00:03:17.182Z,4.53
2023-12-09T00:05:46.147Z,5.60
2023-12-09T00:08:14.550Z,5.30
2023-12-09T00:10:42.993Z,4.27
2023-12-09T00:13:11.933Z,4.70
2023-12-09T00:15:40.241Z,4.77
2023-12-09T00:18:10.854Z,4.90
2023-12-09T00:20:39.290Z,3.90
2023-12-09T00:23:08.823Z,5.00
2023-12-09T00:25:37.148Z,5.47
2023-12-09T00:28:05.505Z,6.33
2023-12-09T00:30:33.906Z,6.07
2023-12-09T00:33:02.927Z,4.53
2023-12-09T00:35:32.683Z,4.43
2023-12-09T00:38:01.251Z,4.00
2023-12-09T00:40:29.574Z,4.33
2023-12-09T00:42:57.900Z,4.10
2023-12-09T00:45:27.139Z,3.60
2023-12-09T00:47:55.868Z,4.80
2023-12-09T00:50:24.312Z,5.03
2023-12-09T00:52:53.965Z,3.83
2023-12-09T00:55:22.349Z,4.60
2023-12-09T00:57:50.630Z,4.23
2023-12-09T01:00:19.651Z,5.50
2023-12-09T01:02:48.076Z,4.67
2023-12-09T01:05:16.382Z,4.13
2023-12-09T01:07:44.767Z,3.57
2023-12-09T01:10:14.570Z,3.47
2023-12-09T01:12:42.894Z,4.57
2023-12-09T01:15:11.514Z,4.63
2023-12-09T01:17:39.903Z,3.57
2023-12-09T01:20:08.942Z,3.53
2023-12-09T01:22:37.328Z,3.97
2023-12-09T01:25:06.295Z,3.87
2023-12-09T01:27:36.043Z,4.27
2023-12-09T01:30:05.041Z,3.07
2023-12-09T01:32:33.389Z,3.47
2023-12-09T01:35:01.756Z,3.13
2023-12-09T01:37:30.056Z,3.47
2023-12-09T01:39:58.349Z,3.67
2023-12-09T01:42:27.050Z,3.50
2023-12-09T01:44:57.054Z,4.30
2023-12-09T01:47:25.464Z,2.73
2023-12-09T01:49:53.944Z,3.73
2023-12-09T01:52:22.338Z,3.20
2023-12-09T01:54:50.661Z,3.63
2023-12-09T01:57:19.614Z,2.97
2023-12-09T01:59:47.931Z,3.67
2023-12-09T02:02:17.656Z,2.70
2023-12-09T02:04:46.034Z,3.67
2023-12-09T02:07:14.367Z,3.27
2023-12-09T02:09:43.525Z,3.23
2023-12-09T02:12:13.313Z,3.00
2023-12-09T02:14:42.220Z,3.10
2023-12-09T02:17:11.400Z,4.07
2023-12-09T02:19:41.066Z,3.60
2023-12-09T02:22:10.627Z,3.00
2023-12-09T02:24:40.370Z,2.43
2023-12-09T02:27:10.572Z,3.03
2023-12-09T02:29:41.242Z,3.67
2023-12-09T02:32:09.892Z,2.07
2023-12-09T02:34:39.366Z,2.90
2023-12-09T02:37:07.778Z,2.83
2023-12-09T02:39:36.156Z,2.67
2023-12-09T02:42:06.433Z,2.20
2023-12-09T02:44:35.066Z,2.47
2023-12-09T02:47:03.427Z,2.70
2023-12-09T02:49:31.891Z,2.50
2023-12-09T02:52:00.289Z,2.30
2023-12-09T02:54:28.699Z,2.87
2023-12-09T02:56:57.026Z,2.70
2023-12-09T02:59:28.766Z,2.50
2023-12-09T03:01:57.074Z,2.47
2023-12-09T03:04:25.366Z,2.53
2023-12-09T03:06:53.672Z,2.30
2023-12-09T03:09:21.968Z,2.53
2023-12-09T03:11:50.307Z,2.53
2023-12-09T03:14:18.690Z,2.47
2023-12-09T03:16:48.358Z,2.50
2023-12-09T03:19:16.753Z,3.07
2023-12-09T03:21:45.192Z,2.53
2023-12-09T03:24:13.532Z,2.23
2023-12-09T03:26:41.848Z,2.70
2023-12-09T03:29:10.180Z,3.20
2023-12-09T03:31:42.210Z,2.10
2023-12-09T03:34:12.050Z,2.90
2023-12-09T03:36:40.394Z,2.30
2023-12-09T03:39:08.762Z,2.53
2023-12-09T03:41:37.123Z,3.33
2023-12-09T03:44:05.517Z,2.63
2023-12-09T03:46:33.831Z,2.40
2023-12-09T03:49:02.250Z,3.17
2023-12-09T03:51:32.070Z,2.30
2023-12-09T03:54:00.703Z,1.90
2023-12-09T03:56:29.012Z,2.23
2023-12-09T03:58:57.311Z,2.50
2023-12-09T04:01:26.080Z,2.20
2023-12-09T04:03:55.147Z,2.47
2023-12-09T04:06:23.599Z,2.23
2023-12-09T04:08:53.239Z,2.87
2023-12-09T04:11:21.543Z,2.63
2023-12-09T04:13:49.905Z,2.27
2023-12-09T04:16:18.214Z,2.90
2023-12-09T04:18:46.645Z,3.00
2023-12-09T04:21:15.095Z,2.67
2023-12-09T04:23:43.442Z,2.57
2023-12-09T04:26:13.079Z,2.73
2023-12-09T04:28:41.356Z,3.93
2023-12-09T04:31:09.639Z,3.13
2023-12-09T04:33:38.047Z,2.83
2023-12-09T04:36:06.777Z,3.33
2023-12-09T04:38:35.070Z,3.80
2023-12-09T04:41:03.779Z,3.33
2023-12-09T04:43:33.448Z,4.97
2023-12-09T04:46:01.730Z,3.30
2023-12-09T04:48:30.245Z,3.77
2023-12-09T04:50:58.637Z,3.67
2023-12-09T04:53:26.928Z,3.57
2023-12-09T04:55:55.216Z,3.73
2023-12-09T04:58:23.501Z,4.07
2023-12-09T05:00:53.209Z,5.00
2023-12-09T05:03:21.661Z,4.13
2023-12-09T05:05:50.107Z,4.63
2023-12-09T05:08:18.922Z,4.17
2023-12-09T05:10:47.404Z,4.17
2023-12-09T05:13:15.726Z,4.30
2023-12-09T05:15:44.313Z,4.70
2023-12-09T05:18:14.198Z,3.70
2023-12-09T05:20:42.626Z,4.20
2023-12-09T05:23:10.913Z,5.07
2023-12-09T05:25:39.321Z,4.13
2023-12-09T05:28:07.647Z,4.33
2023-12-09T05:30:36.715Z,5.03
2023-12-09T05:33:05.779Z,4.53
2023-12-09T05:35:35.835Z,4.40
2023-12-09T05:38:04.258Z,4.50
2023-12-09T05:40:35.814Z,5.00
2023-12-09T05:43:04.572Z,4.57
2023-12-09T05:45:33.258Z,4.93
2023-12-09T05:48:01.725Z,4.53
2023-12-09T05:50:30.146Z,5.40
2023-12-09T05:53:02.285Z,5.07
2023-12-09T05:55:30.911Z,5.47
2023-12-09T05:57:59.202Z,5.20
2023-12-09T06:00:27.667Z,4.93
2023-12-09T06:02:56.064Z,4.80
2023-12-09T06:05:24.546Z,5.83
2023-12-09T06:07:52.905Z,5.13
2023-12-09T06:10:22.634Z,4.57
2023-12-09T06:12:51.187Z,6.00
2023-12-09T06:15:19.588Z,5.50
2023-12-09T06:17:47.948Z,5.50
2023-12-09T06:20:16.508Z,4.47
2023-12-09T06:22:44.825Z,4.60
2023-12-09T06:25:13.135Z,5.23
2023-12-09T06:27:42.842Z,4.50
2023-12-09T06:30:11.796Z,5.17
2023-12-09T06:32:40.417Z,5.00
2023-12-09T06:35:09.188Z,4.93
2023-12-09T06:37:37.586Z,6.07
2023-12-09T06:40:06.186Z,5.77
2023-12-09T06:42:34.547Z,4.80
2023-12-09T06:45:04.289Z,6.30
2023-12-09T06:47:33.464Z,5.70
2023-12-09T06:50:01.806Z,5.93
2023-12-09T06:52:30.277Z,4.73
2023-12-09T06:54:58.589Z,4.50
2023-12-09T06:57:26.890Z,5.60
2023-12-09T06:59:55.245Z,5.63
2023-12-09T07:02:25.308Z,5.63
2023-12-09T07:04:54.010Z,6.30
2023-12-09T07:07:22.769Z,5.50
2023-12-09T07:09:51.146Z,5.93
2023-12-09T07:12:19.479Z,5.17
2023-12-09T07:14:47.972Z,5.20
2023-12-09T07:17:16.291Z,5.70
2023-12-09T07:19:46.280Z,6.17
2023-12-09T07:22:14.797Z,5.37
2023-12-09T07:24:43.429Z,5.03
2023-12-09T07:27:11.844Z,5.40
2023-12-09T07:29:40.225Z,5.80
2023-12-09T07:32:08.800Z,5.40
2023-12-09T07:34:37.253Z,5.27
2023-12-09T07:37:07.130Z,5.20
2023-12-09T07:39:35.471Z,5.17
2023-12-09T07:42:03.818Z,5.87
2023-12-09T07:44:32.224Z,5.23
2023-12-09T07:47:00.550Z,5.30
2023-12-09T07:49:29.225Z,5.20
2023-12-09T07:51:57.629Z,6.17
2023-12-09T07:54:28.412Z,7.50
2023-12-09T07:56:56.820Z,5.70
2023-12-09T07:59:25.134Z,6.87
2023-12-09T08:01:53.429Z,6.50
2023-12-09T08:04:21.797Z,6.50
2023-12-09T08:06:50.342Z,5.90
2023-12-09T08:09:18.744Z,6.40
2023-12-09T08:11:50.014Z,6.30
2023-12-09T08:14:20.427Z,6.20
2023-12-09T08:16:48.952Z,5.33
2023-12-09T08:19:17.664Z,5.80
2023-12-09T08:21:46.107Z,6.00
2023-12-09T08:24:14.508Z,5.90
2023-12-09T08:26:42.849Z,4.87
2023-12-09T08:29:15.201Z,5.37
2023-12-09T08:31:47.794Z,5.47
2023-12-09T08:34:16.293Z,5.33
2023-12-09T08:36:45.222Z,6.10
2023-12-09T08:39:15.414Z,5.63
2023-12-09T08:41:44.318Z,5.07
2023-12-09T08:44:13.965Z,4.90
2023-12-09T08:46:42.297Z,5.30
2023-12-09T08:49:10.699Z,5.33
2023-12-09T08:51:46.049Z,5.07
2023-12-09T08:54:14.554Z,4.87
2023-12-09T08:56:42.966Z,4.47
2023-12-09T08:59:12.145Z,5.43
2023-12-09T09:01:42.557Z,4.97
2023-12-09T09:04:11.075Z,5.23
2023-12-09T09:06:39.538Z,5.67
2023-12-09T09:09:10.858Z,4.70
2023-12-09T09:11:39.214Z,5.30
2023-12-09T09:14:07.577Z,5.90
2023-12-09T09:16:36.571Z,5.87
2023-12-09T09:19:06.442Z,5.93
2023-12-09T09:21:34.861Z,5.47
2023-12-09T09:24:03.668Z,5.73
2023-12-09T09:26:32.050Z,5.40
2023-12-09T09:29:00.429Z,6.10
2023-12-09T09:31:28.775Z,6.57
2023-12-09T09:33:57.270Z,6.23
2023-12-09T09:36:27.145Z,6.23
2023-12-09T09:38:55.571Z,6.30
2023-12-09T09:41:24.621Z,5.87
2023-12-09T09:43:55.537Z,6.00
2023-12-09T09:46:23.884Z,5.60
2023-12-09T09:48:52.456Z,5.20
2023-12-09T09:51:24.854Z,6.00
2023-12-09T09:53:59.976Z,4.97
2023-12-09T09:56:28.308Z,5.77
2023-12-09T09:58:57.397Z,5.90
2023-12-09T10:01:25.742Z,5.87
2023-12-09T10:03:54.226Z,5.97
2023-12-09T10:06:22.809Z,5.50
2023-12-09T10:08:51.451Z,5.67
2023-12-09T10:11:21.158Z,7.23
2023-12-09T10:13:49.484Z,5.53
2023-12-09T10:16:17.801Z,6.37
2023-12-09T10:18:47.824Z,5.83
2023-12-09T10:21:16.423Z,4.73
2023-12-09T10:23:46.596Z,5.13
2023-12-09T10:26:15.030Z,4.93
2023-12-09T10:28:44.732Z,5.17
2023-12-09T10:31:14.136Z,4.40
2023-12-09T10:33:45.727Z,4.50
2023-12-09T10:36:14.264Z,4.70
2023-12-09T10:38:45.784Z,4.93
2023-12-09T10:41:16.307Z,5.23
2023-12-09T10:43:46.288Z,4.30
2023-12-09T10:46:14.937Z,4.27
2023-12-09T10:48:43.750Z,4.90
2023-12-09T10:51:12.246Z,4.73
2023-12-09T10:53:40.568Z,5.30
2023-12-09T10:56:09.317Z,5.03
2023-12-09T10:58:39.890Z,4.23
2023-12-09T11:01:10.459Z,3.20
2023-12-09T11:03:38.968Z,4.03
2023-12-09T11:06:07.838Z,4.03
2023-12-09T11:08:37.131Z,4.10
2023-12-09T11:11:06.630Z,3.40
2023-12-09T11:13:36.095Z,3.80
2023-12-09T11:16:12.203Z,2.83
2023-12-09T11:18:49.223Z,3.03
2023-12-09T11:21:18.679Z,3.07
2023-12-09T11:23:50.110Z,3.47
2023-12-09T11:26:19.087Z,3.63
2023-12-09T11:28:59.172Z,2.80
2023-12-09T11:31:35.827Z,3.00
2023-12-09T11:34:04.228Z,2.67
2023-12-09T11:36:36.820Z,2.73
2023-12-09T11:39:07.738Z,3.60
2023-12-09T11:41:36.378Z,3.33
2023-12-09T11:44:04.844Z,3.07
2023-12-09T11:46:33.543Z,3.47
2023-12-09T11:49:04.079Z,2.33
2023-12-09T11:51:33.618Z,3.17
2023-12-09T11:54:02.513Z,3.10
2023-12-09T11:56:30.892Z,3.17
2023-12-09T11:58:59.234Z,2.13
2023-12-09T12:01:28.768Z,3.27
2023-12-09T12:03:57.505Z,2.70
2023-12-09T12:06:27.485Z,2.37
2023-12-09T12:08:55.996Z,1.77
2023-12-09T12:11:24.621Z,2.30
2023-12-09T12:13:53.711Z,2.53
2023-12-09T12:16:22.209Z,2.23
2023-12-09T12:18:51.526Z,2.10
2023-12-09T12:21:20.921Z,2.53
2023-12-09T12:23:55.310Z,2.00
2023-12-09T12:26:23.730Z,2.87
2023-12-09T12:28:54.312Z,5.80
2023-12-09T12:31:22.760Z,8.53
2023-12-09T12:33:51.285Z,6.83
2023-12-09T12:36:20.549Z,4.83
2023-12-09T12:38:51.907Z,4.97
2023-12-09T12:41:22.317Z,4.70
2023-12-09T12:43:50.838Z,4.20
2023-12-09T12:46:21.635Z,4.30
2023-12-09T12:48:50.281Z,4.10
2023-12-09T12:51:18.865Z,2.43
2023-12-09T12:53:47.916Z,3.33
2023-12-09T12:56:17.095Z,4.07
2023-12-09T12:58:47.147Z,2.97
2023-12-09T13:01:15.602Z,2.70
2023-12-09T13:03:45.435Z,3.80
2023-12-09T13:06:13.907Z,3.60
2023-12-09T13:08:43.822Z,2.07
2023-12-09T13:11:12.172Z,2.57
2023-12-09T13:13:40.594Z,2.50
2023-12-09T13:16:10.921Z,2.83
2023-12-09T13:18:39.575Z,2.43
2023-12-09T13:21:10.314Z,2.47
2023-12-09T13:23:38.785Z,1.73
2023-12-09T13:26:09.414Z,2.17
2023-12-09T13:28:37.877Z,2.93
2023-12-09T13:31:08.417Z,1.93
2023-12-09T13:33:38.328Z,1.50
2023-12-09T13:36:07.837Z,1.67
2023-12-09T13:38:39.281Z,1.60
2023-12-09T13:41:08.296Z,1.83
2023-12-09T13:43:36.731Z,1.70
2023-12-09T13:46:05.232Z,1.90
2023-12-09T13:48:34.384Z,1.43
2023-12-09T13:51:06.053Z,1.63
2023-12-09T13:53:34.932Z,1.70
2023-12-09T13:56:04.962Z,1.73
2023-12-09T13:58:33.356Z,1.50
2023-12-09T14:01:03.126Z,1.10
2023-12-09T14:03:32.396Z,1.43
2023-12-09T14:06:00.796Z,1.73
2023-12-09T14:08:32.586Z,1.93
2023-12-09T14:11:02.670Z,1.70
2023-12-09T14:13:31.061Z,1.37
2023-12-09T14:15:59.502Z,1.60
2023-12-09T14:18:29.708Z,0.90
2023-12-09T14:20:58.153Z,1.50
2023-12-09T14:23:28.976Z,1.57
2023-12-09T14:25:58.742Z,1.20
2023-12-09T14:28:27.123Z,1.60
2023-12-09T14:30:56.200Z,2.10
2023-12-09T14:33:24.864Z,1.73
2023-12-09T14:35:53.439Z,1.90
2023-12-09T14:38:21.807Z,2.20
2023-12-09T14:40:50.775Z,2.30
2023-12-09T14:43:20.568Z,2.97
2023-12-09T14:45:48.999Z,3.90
2023-12-09T14:48:18.195Z,4.17
2023-12-09T14:50:46.727Z,6.17
2023-12-09T14:53:18.588Z,5.53
2023-12-09T14:55:46.997Z,6.83
2023-12-09T14:58:15.366Z,7.67
2023-12-09T15:00:47.012Z,8.60
2023-12-09T15:03:18.526Z,8.87
2023-12-09T15:05:46.947Z,9.30
2023-12-09T15:08:15.404Z,9.03
2023-12-09T15:10:44.000Z,10.53
2023-12-09T15:13:12.371Z,11.17
2023-12-09T15:15:40.792Z,12.47
2023-12-09T15:18:10.944Z,11.00
2023-12-09T15:20:39.435Z,11.47
2023-12-09T15:23:07.846Z,13.00
2023-12-09T15:25:36.228Z,12.33
2023-12-09T15:28:04.736Z,11.33
2023-12-09T15:30:33.182Z,11.70
2023-12-09T15:33:01.752Z,11.43
2023-12-09T15:35:31.604Z,10.27
2023-12-09T15:38:00.297Z,10.53
2023-12-09T15:40:28.681Z,10.93
2023-12-09T15:42:57.032Z,10.33
2023-12-09T15:45:25.453Z,10.33
2023-12-09T15:47:55.139Z,11.17
2023-12-09T15:50:23.562Z,9.77
2023-12-09T15:52:55.244Z,10.20
2023-12-09T15:55:23.648Z,8.90
2023-12-09T15:57:52.532Z,9.30
2023-12-09T16:00:22.015Z,9.60
2023-12-09T16:02:51.443Z,9.30
2023-12-09T16:05:20.425Z,9.00
2023-12-09T16:07:49.278Z,9.33
2023-12-09T16:10:19.916Z,8.17
2023-12-09T16:12:49.137Z,8.83
2023-12-09T16:15:19.101Z,9.40
2023-12-09T16:17:49.221Z,7.70
2023-12-09T16:20:18.302Z,8.43
2023-12-09T16:22:47.539Z,7.07
2023-12-09T16:25:16.085Z,8.57
2023-12-09T16:27:46.921Z,8.00
2023-12-09T16:30:15.712Z,8.17
2023-12-09T16:32:45.480Z,6.57
2023-12-09T16:35:14.104Z,7.23
2023-12-09T16:37:42.508Z,6.67
2023-12-09T16:40:13.101Z,6.70
2023-12-09T16:42:41.532Z,8.13
2023-12-09T16:45:12.746Z,6.67
2023-12-09T16:47:42.239Z,6.60
2023-12-09T16:50:12.128Z,6.53
2023-12-09T16:52:41.171Z,6.53
2023-12-09T16:55:10.902Z,6.67
2023-12-09T16:57:39.354Z,6.13
2023-12-09T17:00:08.576Z,6.43
2023-12-09T17:02:38.409Z,6.43
2023-12-09T17:05:07.269Z,6.33
2023-12-09T17:07:35.682Z,7.47
2023-12-09T17:10:04.095Z,5.83
2023-12-09T17:12:35.202Z,5.80
2023-12-09T17:15:05.043Z,6.53
2023-12-09T17:17:33.486Z,5.80
2023-12-09T17:20:03.291Z,5.20
2023-12-09T17:22:34.036Z,6.13
2023-12-09T17:25:02.527Z,6.37
2023-12-09T17:27:30.916Z,6.13
2023-12-09T17:29:59.314Z,6.13
2023-12-09T17:32:28.319Z,6.97
2023-12-09T17:34:56.971Z,7.30
2023-12-09T17:37:27.120Z,6.93
2023-12-09T17:39:55.495Z,7.47
2023-12-09T17:42:26.038Z,7.67
2023-12-09T17:44:55.191Z,8.63
2023-12-09T17:47:23.615Z,10.80
2023-12-09T17:49:52.058Z,11.90
2023-12-09T17:52:20.455Z,12.40
2023-12-09T17:54:50.256Z,11.17
2023-12-09T17:57:18.953Z,10.30
2023-12-09T17:59:47.336Z,9.30
2023-12-09T18:02:16.858Z,7.83
2023-12-09T18:04:46.602Z,8.50
2023-12-09T18:07:15.300Z,7.73
2023-12-09T18:09:45.133Z,7.77
2023-12-09T18:12:15.036Z,6.60
2023-12-09T18:14:43.461Z,6.97
2023-12-09T18:17:11.915Z,5.57
2023-12-09T18:19:40.330Z,6.63
2023-12-09T18:22:08.696Z,5.77
2023-12-09T18:24:37.140Z,4.87
2023-12-09T18:27:05.865Z,4.67
2023-12-09T18:29:35.656Z,4.30
2023-12-09T18:32:04.064Z,4.87
2023-12-09T18:34:33.012Z,4.00
2023-12-09T18:37:01.427Z,3.90
2023-12-09T18:39:29.881Z,4.20
2023-12-09T18:41:58.292Z,3.60
2023-12-09T18:44:26.757Z,3.20
2023-12-09T18:46:57.220Z,3.37
2023-12-09T18:49:27.478Z,2.83
2023-12-09T18:51:57.037Z,2.90
2023-12-09T18:54:25.535Z,2.60
2023-12-09T18:56:54.274Z,2.87
2023-12-09T18:59:22.674Z,3.10
2023-12-09T19:01:58.537Z,2.77
2023-12-09T19:04:37.766Z,3.00
2023-12-09T19:07:08.225Z,2.60
2023-12-09T19:09:37.463Z,2.70
2023-12-09T19:12:06.639Z,2.80
2023-12-09T19:14:35.053Z,2.23
2023-12-09T19:17:04.192Z,3.03
2023-12-09T19:19:34.651Z,2.50
2023-12-09T19:22:05.452Z,3.10
2023-12-09T19:24:34.982Z,2.60
2023-12-09T19:27:05.085Z,2.13
2023-12-09T19:29:33.739Z,2.37
2023-12-09T19:32:03.777Z,2.53
2023-12-09T19:34:32.361Z,2.80
2023-12-09T19:37:02.265Z,2.50
2023-12-09T19:39:31.510Z,2.77
2023-12-09T19:42:00.967Z,2.47
2023-12-09T19:44:29.399Z,2.80
2023-12-09T19:46:57.774Z,2.07
2023-12-09T19:49:26.799Z,2.77
2023-12-09T19:51:55.454Z,2.50
2023-12-09T19:54:25.763Z,2.03
2023-12-09T19:56:54.368Z,2.70
2023-12-09T19:59:23.048Z,2.93
2023-12-09T20:01:51.490Z,2.50
2023-12-09T20:04:21.254Z,2.00
2023-12-09T20:06:50.687Z,2.80
2023-12-09T20:09:19.406Z,2.20
2023-12-09T20:11:49.305Z,3.03
2023-12-09T20:14:18.538Z,2.33
2023-12-09T20:16:46.909Z,2.57
2023-12-09T20:19:15.394Z,2.90
2023-12-09T20:21:43.854Z,3.53
2023-12-09T20:24:12.491Z,2.47
2023-12-09T20:26:41.795Z,2.70
2023-12-09T20:29:11.547Z,2.93
2023-12-09T20:31:39.905Z,3.50
2023-12-09T20:34:08.402Z,2.70
2023-12-09T20:36:37.326Z,3.30
2023-12-09T20:39:05.815Z,3.03
2023-12-09T20:41:33.373Z,3.07
2023-12-09T20:44:01.742Z,3.40
2023-12-09T20:46:33.146Z,3.60
2023-12-09T20:49:01.617Z,2.87
2023-12-09T20:51:31.083Z,3.40
2023-12-09T20:53:59.464Z,4.43
2023-12-09T20:56:28.112Z,20.13
2023-12-09T20:58:56.980Z,63.90
2023-12-09T21:01:25.402Z,93.60
2023-12-09T21:03:55.294Z,89.53
2023-12-09T21:06:24.969Z,74.67
2023-12-09T21:08:53.432Z,54.60
2023-12-09T21:11:22.951Z,52.80
2023-12-09T21:13:51.369Z,45.80
2023-12-09T21:16:22.352Z,39.63
2023-12-09T21:18:50.862Z,37.40
2023-12-09T21:21:21.560Z,35.03
2023-12-09T21:23:50.420Z,27.40
2023-12-09T21:26:20.564Z,30.10
2023-12-09T21:28:48.929Z,26.77
2023-12-09T21:31:17.277Z,25.37
2023-12-09T21:33:45.805Z,25.13
2023-12-09T21:36:14.780Z,21.57
2023-12-09T21:38:44.551Z,19.97
2023-12-09T21:41:21.052Z,15.50
2023-12-09T21:43:50.571Z,18.37
2023-12-09T21:46:21.785Z,15.93
2023-12-09T21:48:52.132Z,15.70
2023-12-09T21:51:21.639Z,16.93
2023-12-09T21:53:51.733Z,15.80
2023-12-09T21:56:23.297Z,14.93
2023-12-09T21:58:51.756Z,13.53
2023-12-09T22:01:20.283Z,13.03
2023-12-09T22:03:48.888Z,12.27
2023-12-09T22:06:17.453Z,11.73
2023-12-09T22:08:45.964Z,13.00
2023-12-09T22:11:18.065Z,12.27
2023-12-09T22:13:46.602Z,10.70
2023-12-09T22:16:14.964Z,11.67
2023-12-09T22:18:43.615Z,9.93
2023-12-09T22:21:12.093Z,9.87
2023-12-09T22:23:42.311Z,11.47
2023-12-09T22:26:10.728Z,9.70
2023-12-09T22:28:41.652Z,9.17
2023-12-09T22:31:10.252Z,9.13
2023-12-09T22:33:41.088Z,9.40
2023-12-09T22:36:10.640Z,10.43
2023-12-09T22:38:39.100Z,9.60
2023-12-09T22:41:07.769Z,8.87
2023-12-09T22:43:36.239Z,9.03
2023-12-09T22:46:06.229Z,8.83
2023-12-09T22:48:34.858Z,7.37
2023-12-09T22:51:03.437Z,7.60
2023-12-09T22:53:31.816Z,7.87
2023-12-09T22:56:12.581Z,7.77
2023-12-09T22:58:42.495Z,7.73
2023-12-09T23:01:12.436Z,7.53
2023-12-09T23:03:40.927Z,7.80
2023-12-09T23:06:10.357Z,7.83
2023-12-09T23:08:40.552Z,7.63
2023-12-09T23:11:09.812Z,6.90
2023-12-09T23:13:38.176Z,7.50
2023-12-09T23:16:08.162Z,6.83
2023-12-09T23:18:37.996Z,7.27
2023-12-09T23:21:06.775Z,6.80
2023-12-09T23:23:36.346Z,5.77
2023-12-09T23:26:04.942Z,5.97
2023-12-09T23:28:33.354Z,5.60
2023-12-09T23:31:03.178Z,6.00
2023-12-09T23:33:32.369Z,5.77
2023-12-09T23:36:02.302Z,5.97
2023-12-09T23:38:31.867Z,6.43
2023-12-09T23:41:01.113Z,5.53
2023-12-09T23:43:29.512Z,6.13
2023-12-09T23:45:57.856Z,6.07
2023-12-09T23:48:27.565Z,5.43
2023-12-09T23:50:56.096Z,5.20
2023-12-09T23:53:25.878Z,5.13
2023-12-09T23:55:54.297Z,4.97
2023-12-09T23:58:23.602Z,5.43
